createdAt,value
2022-12-23T14:03:34.651Z,4.55
2022-12-23T14:06:01.549Z,5.88
2022-12-23T14:08:28.233Z,4.55
2022-12-23T14:10:54.916Z,3.00
2022-12-23T14:13:21.701Z,2.83
2022-12-23T14:15:48.654Z,2.80
2022-12-23T14:18:15.389Z,4.45
2022-12-23T14:20:42.056Z,2.58
2022-12-23T14:23:08.729Z,3.28
2022-12-23T14:25:35.406Z,5.50
2022-12-23T14:28:02.297Z,3.42
2022-12-23T14:30:28.981Z,4.63
2022-12-23T14:32:55.666Z,5.80
2022-12-23T14:35:22.325Z,3.75
2022-12-23T14:37:48.995Z,3.63
2022-12-23T14:40:15.686Z,4.82
2022-12-23T14:42:42.365Z,3.83
2022-12-23T14:45:09.049Z,2.28
2022-12-23T14:47:35.758Z,4.03
2022-12-23T14:50:02.437Z,2.67
2022-12-23T14:52:29.118Z,2.35
2022-12-23T14:55:28.520Z,2.20
2022-12-23T14:57:42.483Z,3.75
2022-12-23T15:00:09.164Z,42.55
2022-12-23T15:02:35.938Z,76.80
2022-12-23T15:05:02.652Z,65.72
2022-12-23T15:07:29.323Z,47.30
2022-12-23T15:10:00.678Z,42.40
2022-12-23T15:12:28.138Z,31.58
2022-12-23T15:14:54.805Z,14.93
2022-12-23T15:17:21.460Z,15.43
2022-12-23T15:19:48.151Z,10.70
2022-12-23T15:22:23.730Z,5.97
2022-12-23T15:24:55.918Z,6.38
2022-12-23T15:27:27.873Z,5.60
2022-12-23T15:29:55.136Z,5.40
2022-12-23T15:32:21.809Z,4.95
2022-12-23T15:34:48.490Z,3.72
2022-12-23T15:37:15.221Z,4.40
2022-12-23T15:39:41.904Z,4.60
2022-12-23T15:42:08.608Z,4.15
2022-12-23T15:44:35.302Z,5.05
2022-12-23T15:47:02.074Z,2.92
2022-12-23T15:49:28.779Z,3.35
2022-12-23T15:52:07.902Z,3.10
2022-12-23T15:54:36.320Z,5.70
2022-12-23T15:57:03.941Z,3.60
2022-12-23T15:59:30.639Z,4.78
2022-12-23T16:01:57.420Z,2.97
2022-12-23T16:04:24.171Z,2.67
2022-12-23T16:06:50.877Z,3.33
2022-12-23T16:09:17.574Z,3.50
2022-12-23T16:11:44.264Z,6.65
2022-12-23T16:14:10.938Z,5.63
2022-12-23T16:16:37.679Z,5.77
2022-12-23T16:19:04.337Z,3.60
2022-12-23T16:21:31.014Z,4.68
2022-12-23T16:23:57.715Z,3.70
2022-12-23T16:26:24.387Z,5.70
2022-12-23T16:28:51.067Z,6.97
2022-12-23T16:31:17.783Z,3.88
2022-12-23T16:33:44.503Z,5.15
2022-12-23T16:36:11.238Z,4.90
2022-12-23T16:38:37.982Z,4.07
2022-12-23T16:41:04.642Z,3.93
2022-12-23T16:43:31.339Z,3.50
2022-12-23T16:45:58.099Z,3.70
2022-12-23T16:48:24.824Z,3.38
2022-12-23T16:50:51.513Z,3.40
2022-12-23T16:53:18.249Z,2.90
2022-12-23T16:55:52.446Z,3.05
2022-12-23T16:58:23.436Z,4.28
2022-12-23T17:00:50.124Z,4.57
2022-12-23T17:03:16.883Z,4.00
2022-12-23T17:05:43.601Z,4.13
2022-12-23T17:08:10.287Z,4.43
2022-12-23T17:10:36.963Z,5.35
2022-12-23T17:13:03.735Z,5.68
2022-12-23T17:15:30.426Z,7.80
2022-12-23T17:17:57.733Z,7.43
2022-12-23T17:20:25.066Z,6.90
2022-12-23T17:22:51.756Z,7.88
2022-12-23T17:25:22.759Z,8.25
2022-12-23T17:27:51.354Z,5.85
2022-12-23T17:30:18.040Z,9.03
2022-12-23T17:32:44.731Z,8.75
2022-12-23T17:35:11.610Z,12.05
2022-12-23T17:37:38.285Z,7.07
2022-12-23T17:40:05.066Z,8.05
2022-12-23T17:42:31.765Z,6.77
2022-12-23T17:44:58.685Z,8.10
2022-12-23T17:47:25.378Z,5.55
2022-12-23T17:49:52.068Z,6.47
2022-12-23T17:52:19.531Z,11.10
2022-12-23T17:54:46.210Z,10.97
2022-12-23T17:57:12.888Z,11.80
2022-12-23T17:59:39.547Z,8.25
2022-12-23T18:02:06.242Z,9.18
2022-12-23T18:04:32.940Z,5.55
2022-12-23T18:06:59.594Z,6.20
2022-12-23T18:09:26.496Z,9.88
2022-12-23T18:11:53.177Z,8.82
2022-12-23T18:14:19.842Z,8.35
2022-12-23T18:16:46.605Z,6.72
2022-12-23T18:19:13.537Z,10.23
2022-12-23T18:21:40.221Z,5.88
2022-12-23T18:24:06.900Z,5.43
2022-12-23T18:26:33.587Z,8.55
2022-12-23T18:29:00.476Z,5.38
2022-12-23T18:31:27.303Z,8.73
2022-12-23T18:33:54.147Z,6.55
2022-12-23T18:36:21.073Z,5.00
2022-12-23T18:38:47.741Z,8.95
2022-12-23T18:41:14.426Z,7.72
2022-12-23T18:43:41.103Z,5.57
2022-12-23T18:46:07.798Z,7.47
2022-12-23T18:48:34.473Z,6.20
2022-12-23T18:51:01.166Z,6.00
2022-12-23T18:53:27.820Z,7.10
2022-12-23T18:55:54.914Z,3.53
2022-12-23T18:58:21.841Z,6.45
2022-12-23T19:00:48.552Z,8.82
2022-12-23T19:03:15.220Z,5.18
2022-12-23T19:05:41.907Z,5.57
2022-12-23T19:08:08.560Z,5.87
2022-12-23T19:10:35.228Z,6.40
2022-12-23T19:13:02.119Z,7.18
2022-12-23T19:15:28.833Z,5.63
2022-12-23T19:17:55.514Z,5.43
2022-12-23T19:20:22.197Z,4.57
2022-12-23T19:22:48.889Z,5.30
2022-12-23T19:25:15.545Z,3.97
2022-12-23T19:27:42.216Z,5.63
2022-12-23T19:30:08.905Z,4.32
2022-12-23T19:32:35.583Z,6.23
2022-12-23T19:35:02.499Z,4.32
2022-12-23T19:37:29.181Z,4.53
2022-12-23T19:39:56.086Z,4.78
2022-12-23T19:42:22.764Z,3.50
2022-12-23T19:44:49.435Z,4.87
2022-12-23T19:47:16.116Z,3.45
2022-12-23T19:49:45.728Z,5.22
2022-12-23T19:52:12.380Z,17.42
2022-12-23T19:54:39.036Z,9.85
2022-12-23T19:57:05.725Z,14.10
2022-12-23T19:59:32.380Z,12.25
2022-12-23T20:01:59.151Z,8.57
2022-12-23T20:04:25.903Z,13.05
2022-12-23T20:06:52.610Z,10.95
2022-12-23T20:09:19.291Z,8.37
2022-12-23T20:11:45.979Z,8.70
2022-12-23T20:14:12.692Z,5.40
2022-12-23T20:16:39.372Z,8.35
2022-12-23T20:19:06.042Z,5.65
2022-12-23T20:21:32.729Z,7.13
2022-12-23T20:23:59.432Z,6.70
2022-12-23T20:26:26.110Z,11.98
2022-12-23T20:28:52.994Z,12.10
2022-12-23T20:31:19.726Z,6.40
2022-12-23T20:33:46.426Z,7.73
2022-12-23T20:36:13.149Z,8.68
2022-12-23T20:38:40.071Z,8.48
2022-12-23T20:41:06.732Z,4.95
2022-12-23T20:43:33.595Z,8.50
2022-12-23T20:46:00.369Z,6.10
2022-12-23T20:48:33.496Z,6.03
2022-12-23T20:51:00.794Z,4.38
2022-12-23T20:53:27.445Z,4.88
2022-12-23T20:55:54.324Z,6.28
2022-12-23T20:58:21.015Z,4.37
2022-12-23T21:00:47.712Z,9.20
2022-12-23T21:03:14.475Z,11.20
2022-12-23T21:05:41.945Z,8.45
2022-12-23T21:08:08.629Z,7.80
2022-12-23T21:10:35.306Z,8.20
2022-12-23T21:13:01.965Z,6.35
2022-12-23T21:15:28.642Z,9.40
2022-12-23T21:17:55.547Z,9.38
2022-12-23T21:20:22.220Z,11.30
2022-12-23T21:22:48.885Z,11.60
2022-12-23T21:25:15.591Z,8.27
2022-12-23T21:27:42.252Z,14.38
2022-12-23T21:30:08.952Z,12.18
2022-12-23T21:32:35.638Z,24.60
2022-12-23T21:35:02.304Z,7.77
2022-12-23T21:37:28.988Z,11.23
2022-12-23T21:39:55.673Z,10.27
2022-12-23T21:42:22.328Z,9.05
2022-12-23T21:44:49.014Z,15.90
2022-12-23T21:47:15.754Z,11.30
2022-12-23T21:49:42.457Z,14.40
2022-12-23T21:52:09.134Z,11.55
2022-12-23T21:54:36.012Z,9.05
2022-12-23T21:57:02.704Z,12.63
2022-12-23T21:59:34.764Z,8.93
2022-12-23T22:02:02.377Z,10.80
2022-12-23T22:04:29.079Z,8.50
2022-12-23T22:06:55.753Z,7.97
2022-12-23T22:09:22.426Z,5.85
2022-12-23T22:11:49.130Z,6.10
2022-12-23T22:14:16.019Z,9.07
2022-12-23T22:16:42.763Z,8.45
2022-12-23T22:19:09.464Z,6.13
2022-12-23T22:21:36.147Z,7.85
2022-12-23T22:24:02.819Z,7.07
2022-12-23T22:26:29.707Z,6.47
2022-12-23T22:28:56.590Z,9.23
2022-12-23T22:31:23.297Z,4.97
2022-12-23T22:33:50.230Z,5.38
2022-12-23T22:36:16.915Z,5.00
2022-12-23T22:38:43.628Z,4.22
2022-12-23T22:41:10.314Z,5.05
2022-12-23T22:43:37.011Z,5.35
2022-12-23T22:46:04.127Z,7.03
2022-12-23T22:48:31.236Z,8.33
2022-12-23T22:50:57.919Z,3.90
2022-12-23T22:53:29.599Z,5.38
2022-12-23T22:55:56.809Z,4.70
2022-12-23T22:58:23.719Z,6.38
2022-12-23T23:00:50.391Z,3.80
2022-12-23T23:03:17.334Z,4.30
2022-12-23T23:05:44.060Z,3.38
2022-12-23T23:08:10.909Z,4.32
2022-12-23T23:10:37.609Z,6.45
2022-12-23T23:13:04.273Z,4.50
2022-12-23T23:15:30.934Z,4.75
2022-12-23T23:17:58.381Z,4.20
2022-12-23T23:20:25.073Z,3.53
2022-12-23T23:22:51.966Z,4.50
2022-12-23T23:25:18.642Z,3.70
2022-12-23T23:27:45.303Z,4.07
2022-12-23T23:30:12.197Z,5.38
2022-12-23T23:32:38.922Z,4.80
2022-12-23T23:35:10.671Z,5.45
2022-12-23T23:37:37.867Z,3.17
2022-12-23T23:40:04.602Z,3.95
2022-12-23T23:42:31.446Z,2.30
2022-12-23T23:44:58.133Z,3.08
2022-12-23T23:47:25.021Z,5.10
2022-12-23T23:49:51.692Z,4.10
2022-12-23T23:52:18.359Z,5.70
2022-12-23T23:54:45.016Z,4.70
2022-12-23T23:57:11.683Z,3.85
2022-12-23T23:59:38.340Z,6.43
